sensor_id;sensor_type;location;lat;lon;timestamp;P1;durP1;ratioP1;P2;durP2;ratioP2
28625;SDS011;18905;42.668;23.364;2024-03-23T00:51:36;14.38;;;6.53;;
28625;SDS011;18905;42.668;23.364;2024-03-23T00:54:02;21.02;;;6.63;;
28625;SDS011;18905;42.668;23.364;2024-03-23T00:56:28;10.82;;;5.85;;
28625;SDS011;18905;42.668;23.364;2024-03-23T00:58:54;9.07;;;5.40;;
28625;SDS011;18905;42.668;23.364;2024-03-23T01:01:19;13.65;;;6.30;;
28625;SDS011;18905;42.668;23.364;2024-03-23T01:03:44;9.98;;;5.78;;
28625;SDS011;18905;42.668;23.364;2024-03-23T01:06:10;13.98;;;5.85;;
28625;SDS011;18905;42.668;23.364;2024-03-23T01:08:35;11.63;;;5.68;;
28625;SDS011;18905;42.668;23.364;2024-03-23T01:11:00;11.45;;;5.53;;
28625;SDS011;18905;42.668;23.364;2024-03-23T01:13:27;12.55;;;5.68;;
28625;SDS011;18905;42.668;23.364;2024-03-23T01:15:54;10.27;;;5.35;;
28625;SDS011;18905;42.668;23.364;2024-03-23T01:18:20;8.68;;;5.55;;
28625;SDS011;18905;42.668;23.364;2024-03-23T01:20:47;7.88;;;5.28;;
28625;SDS011;18905;42.668;23.364;2024-03-23T01:23:13;16.55;;;5.68;;
28625;SDS011;18905;42.668;23.364;2024-03-23T01:25:38;12.27;;;4.95;;
28625;SDS011;18905;42.668;23.364;2024-03-23T01:28:04;16.30;;;6.07;;
28625;SDS011;18905;42.668;23.364;2024-03-23T01:30:31;8.15;;;5.32;;
28625;SDS011;18905;42.668;23.364;2024-03-23T01:32:57;10.30;;;5.40;;
28625;SDS011;18905;42.668;23.364;2024-03-23T01:35:22;9.65;;;5.28;;
28625;SDS011;18905;42.668;23.364;2024-03-23T01:37:48;9.55;;;5.13;;
28625;SDS011;18905;42.668;23.364;2024-03-23T01:40:13;8.57;;;5.55;;
28625;SDS011;18905;42.668;23.364;2024-03-23T01:42:42;9.32;;;4.97;;
28625;SDS011;18905;42.668;23.364;2024-03-23T01:45:07;15.18;;;5.28;;
28625;SDS011;18905;42.668;23.364;2024-03-23T01:47:34;10.55;;;5.70;;
28625;SDS011;18905;42.668;23.364;2024-03-23T01:50:00;12.80;;;5.75;;
28625;SDS011;18905;42.668;23.364;2024-03-23T01:52:26;10.75;;;5.65;;
28625;SDS011;18905;42.668;23.364;2024-03-23T01:54:52;14.68;;;6.38;;
28625;SDS011;18905;42.668;23.364;2024-03-23T01:57:18;11.75;;;5.63;;
28625;SDS011;18905;42.668;23.364;2024-03-23T01:59:45;12.48;;;5.93;;
28625;SDS011;18905;42.668;23.364;2024-03-23T02:02:10;8.50;;;5.22;;
28625;SDS011;18905;42.668;23.364;2024-03-23T02:04:36;13.27;;;5.60;;
28625;SDS011;18905;42.668;23.364;2024-03-23T02:07:01;12.25;;;6.03;;
28625;SDS011;18905;42.668;23.364;2024-03-23T02:09:26;10.88;;;4.75;;
28625;SDS011;18905;42.668;23.364;2024-03-23T02:11:52;14.27;;;5.55;;
28625;SDS011;18905;42.668;23.364;2024-03-23T02:14:17;8.20;;;5.28;;
28625;SDS011;18905;42.668;23.364;2024-03-23T02:16:43;10.85;;;5.82;;
28625;SDS011;18905;42.668;23.364;2024-03-23T02:19:08;10.18;;;6.20;;
28625;SDS011;18905;42.668;23.364;2024-03-23T02:21:33;12.52;;;5.72;;
28625;SDS011;18905;42.668;23.364;2024-03-23T02:23:59;12.27;;;5.57;;
28625;SDS011;18905;42.668;23.364;2024-03-23T02:26:25;16.30;;;6.13;;
28625;SDS011;18905;42.668;23.364;2024-03-23T02:28:50;11.50;;;5.57;;
28625;SDS011;18905;42.668;23.364;2024-03-23T02:31:16;10.57;;;5.00;;
28625;SDS011;18905;42.668;23.364;2024-03-23T02:33:41;12.63;;;6.05;;
28625;SDS011;18905;42.668;23.364;2024-03-23T02:36:07;13.35;;;6.15;;
28625;SDS011;18905;42.668;23.364;2024-03-23T02:38:32;11.90;;;5.70;;
28625;SDS011;18905;42.668;23.364;2024-03-23T02:41:02;13.18;;;6.00;;
28625;SDS011;18905;42.668;23.364;2024-03-23T02:43:28;12.93;;;6.43;;
28625;SDS011;18905;42.668;23.364;2024-03-23T02:45:54;10.50;;;6.00;;
28625;SDS011;18905;42.668;23.364;2024-03-23T02:48:19;15.18;;;6.57;;
28625;SDS011;18905;42.668;23.364;2024-03-23T02:50:44;11.57;;;6.35;;
28625;SDS011;18905;42.668;23.364;2024-03-23T02:53:10;14.50;;;6.45;;
28625;SDS011;18905;42.668;23.364;2024-03-23T02:55:35;16.40;;;6.75;;
28625;SDS011;18905;42.668;23.364;2024-03-23T02:58:01;12.88;;;7.43;;
28625;SDS011;18905;42.668;23.364;2024-03-23T03:00:27;13.18;;;6.15;;
28625;SDS011;18905;42.668;23.364;2024-03-23T03:02:53;11.63;;;5.82;;
28625;SDS011;18905;42.668;23.364;2024-03-23T03:05:18;10.98;;;5.40;;
28625;SDS011;18905;42.668;23.364;2024-03-23T03:07:43;15.63;;;5.97;;
28625;SDS011;18905;42.668;23.364;2024-03-23T03:10:09;9.20;;;5.40;;
28625;SDS011;18905;42.668;23.364;2024-03-23T03:12:36;9.82;;;5.35;;
28625;SDS011;18905;42.668;23.364;2024-03-23T03:15:02;7.15;;;4.97;;
28625;SDS011;18905;42.668;23.364;2024-03-23T03:17:31;9.57;;;6.13;;
28625;SDS011;18905;42.668;23.364;2024-03-23T03:19:56;15.75;;;6.82;;
28625;SDS011;18905;42.668;23.364;2024-03-23T03:22:22;19.65;;;8.35;;
28625;SDS011;18905;42.668;23.364;2024-03-23T03:24:48;13.98;;;7.45;;
28625;SDS011;18905;42.668;23.364;2024-03-23T03:27:14;13.15;;;7.32;;
28625;SDS011;18905;42.668;23.364;2024-03-23T03:29:39;15.70;;;8.27;;
28625;SDS011;18905;42.668;23.364;2024-03-23T03:32:05;19.48;;;9.65;;
28625;SDS011;18905;42.668;23.364;2024-03-23T03:34:31;16.35;;;7.15;;
28625;SDS011;18905;42.668;23.364;2024-03-23T03:36:56;19.02;;;8.23;;
28625;SDS011;18905;42.668;23.364;2024-03-23T03:39:22;17.08;;;8.63;;
28625;SDS011;18905;42.668;23.364;2024-03-23T03:41:48;16.25;;;6.65;;
28625;SDS011;18905;42.668;23.364;2024-03-23T03:44:14;22.17;;;9.02;;
28625;SDS011;18905;42.668;23.364;2024-03-23T03:46:39;16.42;;;8.38;;
28625;SDS011;18905;42.668;23.364;2024-03-23T03:49:04;18.33;;;8.15;;
28625;SDS011;18905;42.668;23.364;2024-03-23T03:51:30;16.52;;;8.10;;
28625;SDS011;18905;42.668;23.364;2024-03-23T03:53:55;18.85;;;8.52;;
28625;SDS011;18905;42.668;23.364;2024-03-23T03:56:21;15.60;;;7.93;;
28625;SDS011;18905;42.668;23.364;2024-03-23T03:58:47;25.88;;;9.65;;
28625;SDS011;18905;42.668;23.364;2024-03-23T04:01:13;20.83;;;9.32;;
28625;SDS011;18905;42.668;23.364;2024-03-23T04:03:38;20.08;;;9.40;;
28625;SDS011;18905;42.668;23.364;2024-03-23T04:06:08;18.55;;;8.27;;
28625;SDS011;18905;42.668;23.364;2024-03-23T04:08:34;21.08;;;9.27;;
28625;SDS011;18905;42.668;23.364;2024-03-23T04:10:59;19.92;;;8.40;;
28625;SDS011;18905;42.668;23.364;2024-03-23T04:13:24;19.77;;;9.13;;
28625;SDS011;18905;42.668;23.364;2024-03-23T04:15:53;20.15;;;9.43;;
28625;SDS011;18905;42.668;23.364;2024-03-23T04:18:20;21.95;;;9.20;;
28625;SDS011;18905;42.668;23.364;2024-03-23T04:20:45;20.58;;;8.57;;
28625;SDS011;18905;42.668;23.364;2024-03-23T04:23:11;21.42;;;9.73;;
28625;SDS011;18905;42.668;23.364;2024-03-23T04:25:37;22.23;;;9.95;;
28625;SDS011;18905;42.668;23.364;2024-03-23T04:28:02;15.38;;;8.18;;
28625;SDS011;18905;42.668;23.364;2024-03-23T04:30:27;25.90;;;9.43;;
28625;SDS011;18905;42.668;23.364;2024-03-23T04:32:54;23.10;;;10.27;;
28625;SDS011;18905;42.668;23.364;2024-03-23T04:35:19;28.48;;;11.85;;
28625;SDS011;18905;42.668;23.364;2024-03-23T04:37:47;23.63;;;10.80;;
28625;SDS011;18905;42.668;23.364;2024-03-23T04:40:12;25.10;;;11.55;;
28625;SDS011;18905;42.668;23.364;2024-03-23T04:42:38;23.80;;;11.45;;
28625;SDS011;18905;42.668;23.364;2024-03-23T04:45:04;19.10;;;10.60;;
28625;SDS011;18905;42.668;23.364;2024-03-23T04:47:31;25.52;;;10.52;;
28625;SDS011;18905;42.668;23.364;2024-03-23T04:49:56;19.75;;;10.18;;
28625;SDS011;18905;42.668;23.364;2024-03-23T04:52:22;24.13;;;9.85;;
28625;SDS011;18905;42.668;23.364;2024-03-23T04:54:47;26.38;;;10.50;;
28625;SDS011;18905;42.668;23.364;2024-03-23T04:57:13;29.40;;;9.80;;
28625;SDS011;18905;42.668;23.364;2024-03-23T04:59:38;24.88;;;9.75;;
28625;SDS011;18905;42.668;23.364;2024-03-23T05:02:03;28.92;;;10.20;;
28625;SDS011;18905;42.668;23.364;2024-03-23T05:04:29;20.50;;;9.15;;
28625;SDS011;18905;42.668;23.364;2024-03-23T05:06:54;19.27;;;9.07;;
28625;SDS011;18905;42.668;23.364;2024-03-23T05:09:20;23.88;;;10.15;;
28625;SDS011;18905;42.668;23.364;2024-03-23T05:11:46;25.45;;;9.52;;
28625;SDS011;18905;42.668;23.364;2024-03-23T05:14:14;21.95;;;9.75;;
28625;SDS011;18905;42.668;23.364;2024-03-23T05:16:40;13.55;;;8.00;;
28625;SDS011;18905;42.668;23.364;2024-03-23T05:19:05;14.80;;;6.82;;
28625;SDS011;18905;42.668;23.364;2024-03-23T05:21:31;7.80;;;3.67;;
28625;SDS011;18905;42.668;23.364;2024-03-23T05:23:56;6.38;;;3.95;;
28625;SDS011;18905;42.668;23.364;2024-03-23T05:26:22;3.35;;;2.70;;
28625;SDS011;18905;42.668;23.364;2024-03-23T05:28:48;10.45;;;3.35;;
28625;SDS011;18905;42.668;23.364;2024-03-23T05:31:30;4.50;;;3.55;;
28625;SDS011;18905;42.668;23.364;2024-03-23T05:33:56;4.75;;;3.92;;
28625;SDS011;18905;42.668;23.364;2024-03-23T05:36:21;6.18;;;4.07;;
28625;SDS011;18905;42.668;23.364;2024-03-23T05:38:47;6.15;;;3.40;;
28625;SDS011;18905;42.668;23.364;2024-03-23T05:41:13;9.75;;;4.45;;
28625;SDS011;18905;42.668;23.364;2024-03-23T05:43:38;7.47;;;4.50;;
28625;SDS011;18905;42.668;23.364;2024-03-23T05:46:04;7.18;;;4.13;;
28625;SDS011;18905;42.668;23.364;2024-03-23T05:48:30;7.90;;;3.90;;
28625;SDS011;18905;42.668;23.364;2024-03-23T05:50:56;10.43;;;4.60;;
28625;SDS011;18905;42.668;23.364;2024-03-23T05:53:23;6.85;;;4.22;;
28625;SDS011;18905;42.668;23.364;2024-03-23T05:55:49;7.28;;;3.90;;
28625;SDS011;18905;42.668;23.364;2024-03-23T05:58:16;9.88;;;4.53;;
28625;SDS011;18905;42.668;23.364;2024-03-23T06:00:42;8.07;;;4.30;;
28625;SDS011;18905;42.668;23.364;2024-03-23T06:03:07;14.82;;;6.57;;
28625;SDS011;18905;42.668;23.364;2024-03-23T06:05:33;6.78;;;4.60;;
28625;SDS011;18905;42.668;23.364;2024-03-23T06:07:58;7.05;;;4.03;;
28625;SDS011;18905;42.668;23.364;2024-03-23T06:10:24;8.30;;;4.95;;
28625;SDS011;18905;42.668;23.364;2024-03-23T06:12:49;10.18;;;5.10;;
28625;SDS011;18905;42.668;23.364;2024-03-23T06:15:17;14.70;;;5.82;;
28625;SDS011;18905;42.668;23.364;2024-03-23T06:17:43;14.23;;;6.82;;
28625;SDS011;18905;42.668;23.364;2024-03-23T06:20:09;10.95;;;6.50;;
28625;SDS011;18905;42.668;23.364;2024-03-23T06:22:35;13.95;;;6.70;;
28625;SDS011;18905;42.668;23.364;2024-03-23T06:25:00;16.65;;;6.88;;
28625;SDS011;18905;42.668;23.364;2024-03-23T06:27:26;10.27;;;5.70;;
28625;SDS011;18905;42.668;23.364;2024-03-23T06:29:51;11.23;;;5.45;;
28625;SDS011;18905;42.668;23.364;2024-03-23T06:32:17;8.68;;;6.25;;
28625;SDS011;18905;42.668;23.364;2024-03-23T06:34:43;13.13;;;6.15;;
28625;SDS011;18905;42.668;23.364;2024-03-23T06:37:08;16.23;;;7.35;;
28625;SDS011;18905;42.668;23.364;2024-03-23T06:39:37;14.52;;;6.43;;
28625;SDS011;18905;42.668;23.364;2024-03-23T06:42:09;14.85;;;7.03;;
28625;SDS011;18905;42.668;23.364;2024-03-23T06:44:34;11.38;;;6.75;;
28625;SDS011;18905;42.668;23.364;2024-03-23T06:46:59;14.88;;;6.68;;
28625;SDS011;18905;42.668;23.364;2024-03-23T06:49:25;12.43;;;6.60;;
28625;SDS011;18905;42.668;23.364;2024-03-23T06:51:50;12.45;;;7.03;;
28625;SDS011;18905;42.668;23.364;2024-03-23T06:54:19;19.35;;;8.02;;
28625;SDS011;18905;42.668;23.364;2024-03-23T06:56:44;14.63;;;7.47;;
28625;SDS011;18905;42.668;23.364;2024-03-23T06:59:10;16.15;;;7.72;;
28625;SDS011;18905;42.668;23.364;2024-03-23T07:01:36;11.68;;;5.75;;
28625;SDS011;18905;42.668;23.364;2024-03-23T07:04:01;12.07;;;7.25;;
28625;SDS011;18905;42.668;23.364;2024-03-23T07:06:27;19.42;;;7.32;;
28625;SDS011;18905;42.668;23.364;2024-03-23T07:08:55;15.50;;;7.93;;
28625;SDS011;18905;42.668;23.364;2024-03-23T07:11:21;15.57;;;7.68;;
28625;SDS011;18905;42.668;23.364;2024-03-23T07:13:49;12.65;;;7.65;;
28625;SDS011;18905;42.668;23.364;2024-03-23T07:16:15;13.82;;;7.78;;
28625;SDS011;18905;42.668;23.364;2024-03-23T07:18:41;14.30;;;7.55;;
28625;SDS011;18905;42.668;23.364;2024-03-23T07:21:06;12.68;;;7.35;;
28625;SDS011;18905;42.668;23.364;2024-03-23T07:23:32;13.93;;;7.65;;
28625;SDS011;18905;42.668;23.364;2024-03-23T07:28:33;12.98;;;6.32;;
28625;SDS011;18905;42.668;23.364;2024-03-23T07:31:09;13.52;;;7.60;;
28625;SDS011;18905;42.668;23.364;2024-03-23T07:33:46;11.65;;;5.80;;
28625;SDS011;18905;42.668;23.364;2024-03-23T07:36:11;11.10;;;6.03;;
28625;SDS011;18905;42.668;23.364;2024-03-23T07:38:40;10.93;;;6.68;;
28625;SDS011;18905;42.668;23.364;2024-03-23T07:41:07;12.75;;;7.07;;
28625;SDS011;18905;42.668;23.364;2024-03-23T07:43:52;13.43;;;7.13;;
28625;SDS011;18905;42.668;23.364;2024-03-23T07:46:19;14.18;;;6.82;;
28625;SDS011;18905;42.668;23.364;2024-03-23T07:48:45;12.20;;;6.57;;
28625;SDS011;18905;42.668;23.364;2024-03-23T07:51:15;10.18;;;5.95;;
28625;SDS011;18905;42.668;23.364;2024-03-23T07:53:43;13.15;;;6.40;;
28625;SDS011;18905;42.668;23.364;2024-03-23T07:56:09;11.30;;;5.90;;
28625;SDS011;18905;42.668;23.364;2024-03-23T07:58:35;15.15;;;6.53;;
28625;SDS011;18905;42.668;23.364;2024-03-23T08:01:08;9.52;;;6.28;;
28625;SDS011;18905;42.668;23.364;2024-03-23T08:03:39;10.85;;;6.57;;
28625;SDS011;18905;42.668;23.364;2024-03-23T08:08:36;14.05;;;7.45;;
28625;SDS011;18905;42.668;23.364;2024-03-23T08:11:02;14.25;;;8.02;;
28625;SDS011;18905;42.668;23.364;2024-03-23T08:13:31;11.68;;;6.95;;
28625;SDS011;18905;42.668;23.364;2024-03-23T08:15:58;18.98;;;8.57;;
28625;SDS011;18905;42.668;23.364;2024-03-23T08:18:24;14.77;;;8.52;;
28625;SDS011;18905;42.668;23.364;2024-03-23T08:20:59;15.43;;;8.63;;
28625;SDS011;18905;42.668;23.364;2024-03-23T08:23:26;11.85;;;7.07;;
28625;SDS011;18905;42.668;23.364;2024-03-23T08:26:02;15.20;;;7.53;;
28625;SDS011;18905;42.668;23.364;2024-03-23T08:28:31;16.67;;;7.57;;
28625;SDS011;18905;42.668;23.364;2024-03-23T08:30:57;13.52;;;7.78;;
28625;SDS011;18905;42.668;23.364;2024-03-23T08:33:25;13.80;;;7.82;;
28625;SDS011;18905;42.668;23.364;2024-03-23T08:35:54;13.82;;;7.72;;
28625;SDS011;18905;42.668;23.364;2024-03-23T08:38:20;13.75;;;7.88;;
28625;SDS011;18905;42.668;23.364;2024-03-23T08:40:46;17.17;;;8.60;;
28625;SDS011;18905;42.668;23.364;2024-03-23T08:43:12;13.70;;;8.68;;
28625;SDS011;18905;42.668;23.364;2024-03-23T08:45:37;18.48;;;9.27;;
28625;SDS011;18905;42.668;23.364;2024-03-23T08:48:03;13.40;;;8.32;;
28625;SDS011;18905;42.668;23.364;2024-03-23T08:50:28;11.65;;;6.45;;
28625;SDS011;18905;42.668;23.364;2024-03-23T08:52:53;13.05;;;8.18;;
28625;SDS011;18905;42.668;23.364;2024-03-23T08:55:19;19.92;;;8.13;;
28625;SDS011;18905;42.668;23.364;2024-03-23T08:57:44;14.52;;;8.30;;
28625;SDS011;18905;42.668;23.364;2024-03-23T09:00:10;14.80;;;8.60;;
28625;SDS011;18905;42.668;23.364;2024-03-23T09:02:36;16.00;;;8.95;;
28625;SDS011;18905;42.668;23.364;2024-03-23T09:05:02;13.95;;;7.75;;
28625;SDS011;18905;42.668;23.364;2024-03-23T09:07:30;16.60;;;8.27;;
28625;SDS011;18905;42.668;23.364;2024-03-23T09:09:56;15.77;;;8.75;;
28625;SDS011;18905;42.668;23.364;2024-03-23T09:12:21;12.20;;;7.60;;
28625;SDS011;18905;42.668;23.364;2024-03-23T09:14:47;13.25;;;6.70;;
28625;SDS011;18905;42.668;23.364;2024-03-23T09:17:12;11.90;;;7.13;;
28625;SDS011;18905;42.668;23.364;2024-03-23T09:19:38;13.50;;;7.80;;
28625;SDS011;18905;42.668;23.364;2024-03-23T09:22:04;15.45;;;7.80;;
28625;SDS011;18905;42.668;23.364;2024-03-23T09:24:30;9.70;;;7.05;;
28625;SDS011;18905;42.668;23.364;2024-03-23T09:26:57;13.60;;;7.38;;
28625;SDS011;18905;42.668;23.364;2024-03-23T09:29:22;12.82;;;7.18;;
28625;SDS011;18905;42.668;23.364;2024-03-23T09:31:47;13.18;;;7.03;;
28625;SDS011;18905;42.668;23.364;2024-03-23T09:34:13;14.30;;;8.23;;
28625;SDS011;18905;42.668;23.364;2024-03-23T09:36:38;9.60;;;5.55;;
28625;SDS011;18905;42.668;23.364;2024-03-23T09:39:03;9.70;;;6.25;;
28625;SDS011;18905;42.668;23.364;2024-03-23T09:41:30;17.00;;;7.22;;
28625;SDS011;18905;42.668;23.364;2024-03-23T09:43:55;15.75;;;8.30;;
28625;SDS011;18905;42.668;23.364;2024-03-23T09:46:21;10.35;;;7.00;;
28625;SDS011;18905;42.668;23.364;2024-03-23T09:48:47;10.48;;;7.00;;
28625;SDS011;18905;42.668;23.364;2024-03-23T09:51:12;11.35;;;6.10;;
28625;SDS011;18905;42.668;23.364;2024-03-23T09:53:38;12.43;;;6.63;;
28625;SDS011;18905;42.668;23.364;2024-03-23T09:56:04;9.63;;;6.65;;
28625;SDS011;18905;42.668;23.364;2024-03-23T09:58:29;11.65;;;6.15;;
28625;SDS011;18905;42.668;23.364;2024-03-23T10:00:57;9.15;;;6.25;;
28625;SDS011;18905;42.668;23.364;2024-03-23T10:03:22;11.65;;;6.05;;
28625;SDS011;18905;42.668;23.364;2024-03-23T10:05:48;12.65;;;6.55;;
28625;SDS011;18905;42.668;23.364;2024-03-23T10:08:25;10.32;;;6.72;;
28625;SDS011;18905;42.668;23.364;2024-03-23T10:10:51;17.15;;;6.90;;
28625;SDS011;18905;42.668;23.364;2024-03-23T10:13:26;11.05;;;7.72;;
28625;SDS011;18905;42.668;23.364;2024-03-23T10:15:54;11.68;;;6.90;;
28625;SDS011;18905;42.668;23.364;2024-03-23T10:18:21;8.32;;;6.05;;
28625;SDS011;18905;42.668;23.364;2024-03-23T10:20:52;12.45;;;7.03;;
28625;SDS011;18905;42.668;23.364;2024-03-23T10:23:41;12.38;;;6.13;;
28625;SDS011;18905;42.668;23.364;2024-03-23T10:26:15;10.98;;;6.55;;
28625;SDS011;18905;42.668;23.364;2024-03-23T10:29:00;10.85;;;6.57;;
28625;SDS011;18905;42.668;23.364;2024-03-23T10:31:30;9.77;;;6.50;;
28625;SDS011;18905;42.668;23.364;2024-03-23T10:33:56;12.13;;;6.90;;
28625;SDS011;18905;42.668;23.364;2024-03-23T10:36:22;11.63;;;6.50;;
28625;SDS011;18905;42.668;23.364;2024-03-23T10:38:49;10.90;;;7.35;;
28625;SDS011;18905;42.668;23.364;2024-03-23T10:41:16;11.57;;;6.30;;
28625;SDS011;18905;42.668;23.364;2024-03-23T10:43:42;7.90;;;5.78;;
28625;SDS011;18905;42.668;23.364;2024-03-23T10:46:08;11.13;;;6.35;;
28625;SDS011;18905;42.668;23.364;2024-03-23T10:48:34;8.32;;;5.60;;
28625;SDS011;18905;42.668;23.364;2024-03-23T10:51:00;13.43;;;6.22;;
28625;SDS011;18905;42.668;23.364;2024-03-23T10:53:26;10.18;;;6.18;;
28625;SDS011;18905;42.668;23.364;2024-03-23T10:55:53;8.43;;;5.53;;
28625;SDS011;18905;42.668;23.364;2024-03-23T10:58:21;11.60;;;6.45;;
28625;SDS011;18905;42.668;23.364;2024-03-23T11:00:52;8.10;;;5.13;;
28625;SDS011;18905;42.668;23.364;2024-03-23T11:03:38;9.23;;;5.40;;
28625;SDS011;18905;42.668;23.364;2024-03-23T11:06:05;7.85;;;5.63;;
28625;SDS011;18905;42.668;23.364;2024-03-23T11:08:31;6.80;;;5.70;;
28625;SDS011;18905;42.668;23.364;2024-03-23T11:13:52;10.15;;;5.82;;
28625;SDS011;18905;42.668;23.364;2024-03-23T11:18:55;8.43;;;5.07;;
28625;SDS011;18905;42.668;23.364;2024-03-23T11:21:58;7.15;;;5.57;;
28625;SDS011;18905;42.668;23.364;2024-03-23T11:24:24;11.10;;;6.25;;
28625;SDS011;18905;42.668;23.364;2024-03-23T11:26:49;7.93;;;5.43;;
28625;SDS011;18905;42.668;23.364;2024-03-23T11:29:15;7.75;;;5.40;;
28625;SDS011;18905;42.668;23.364;2024-03-23T11:31:48;8.48;;;6.18;;
28625;SDS011;18905;42.668;23.364;2024-03-23T11:34:17;14.63;;;5.97;;
28625;SDS011;18905;42.668;23.364;2024-03-23T11:36:44;8.02;;;5.53;;
28625;SDS011;18905;42.668;23.364;2024-03-23T11:41:48;35.40;;;22.08;;
28625;SDS011;18905;42.668;23.364;2024-03-23T11:44:20;9.02;;;7.18;;
28625;SDS011;18905;42.668;23.364;2024-03-23T11:46:49;8.85;;;5.90;;
28625;SDS011;18905;42.668;23.364;2024-03-23T11:51:57;9.38;;;5.65;;
28625;SDS011;18905;42.668;23.364;2024-03-23T11:54:23;7.43;;;5.25;;
28625;SDS011;18905;42.668;23.364;2024-03-23T12:02:05;10.35;;;5.82;;
28625;SDS011;18905;42.668;23.364;2024-03-23T12:04:31;9.90;;;5.60;;
28625;SDS011;18905;42.668;23.364;2024-03-23T12:07:10;8.82;;;6.25;;
28625;SDS011;18905;42.668;23.364;2024-03-23T12:09:39;10.95;;;5.50;;
28625;SDS011;18905;42.668;23.364;2024-03-23T12:12:06;8.75;;;5.55;;
28625;SDS011;18905;42.668;23.364;2024-03-23T12:14:36;12.63;;;5.57;;
28625;SDS011;18905;42.668;23.364;2024-03-23T12:17:12;9.18;;;5.05;;
28625;SDS011;18905;42.668;23.364;2024-03-23T12:19:38;11.85;;;5.88;;
28625;SDS011;18905;42.668;23.364;2024-03-23T12:22:04;5.50;;;4.28;;
28625;SDS011;18905;42.668;23.364;2024-03-23T12:24:31;7.65;;;4.82;;
28625;SDS011;18905;42.668;23.364;2024-03-23T12:27:03;11.50;;;5.95;;
28625;SDS011;18905;42.668;23.364;2024-03-23T12:29:32;8.50;;;5.70;;
28625;SDS011;18905;42.668;23.364;2024-03-23T12:32:01;6.78;;;5.10;;
28625;SDS011;18905;42.668;23.364;2024-03-23T12:34:27;11.80;;;4.30;;
28625;SDS011;18905;42.668;23.364;2024-03-23T12:36:53;12.82;;;6.32;;
28625;SDS011;18905;42.668;23.364;2024-03-23T12:39:19;5.68;;;4.80;;
28625;SDS011;18905;42.668;23.364;2024-03-23T12:41:46;6.38;;;4.97;;
28625;SDS011;18905;42.668;23.364;2024-03-23T12:44:12;10.13;;;5.63;;
28625;SDS011;18905;42.668;23.364;2024-03-23T12:46:38;5.80;;;3.50;;
28625;SDS011;18905;42.668;23.364;2024-03-23T12:49:04;4.55;;;3.72;;
28625;SDS011;18905;42.668;23.364;2024-03-23T12:51:31;5.18;;;4.43;;
28625;SDS011;18905;42.668;23.364;2024-03-23T12:53:56;7.65;;;3.85;;
28625;SDS011;18905;42.668;23.364;2024-03-23T12:56:22;10.25;;;4.25;;
28625;SDS011;18905;42.668;23.364;2024-03-23T12:58:47;4.95;;;3.97;;
28625;SDS011;18905;42.668;23.364;2024-03-23T13:01:20;7.60;;;3.88;;
28625;SDS011;18905;42.668;23.364;2024-03-23T13:03:55;3.75;;;2.88;;
28625;SDS011;18905;42.668;23.364;2024-03-23T13:06:20;8.70;;;3.83;;
28625;SDS011;18905;42.668;23.364;2024-03-23T13:08:46;5.47;;;4.05;;
28625;SDS011;18905;42.668;23.364;2024-03-23T13:11:12;6.15;;;3.60;;
28625;SDS011;18905;42.668;23.364;2024-03-23T13:13:39;4.45;;;3.80;;
28625;SDS011;18905;42.668;23.364;2024-03-23T13:16:05;7.45;;;4.10;;
28625;SDS011;18905;42.668;23.364;2024-03-23T13:18:30;6.63;;;3.92;;
28625;SDS011;18905;42.668;23.364;2024-03-23T13:20:56;6.63;;;3.40;;
28625;SDS011;18905;42.668;23.364;2024-03-23T13:23:22;2.70;;;2.45;;
28625;SDS011;18905;42.668;23.364;2024-03-23T13:25:54;6.53;;;3.45;;
28625;SDS011;18905;42.668;23.364;2024-03-23T13:28:21;13.93;;;2.75;;
28625;SDS011;18905;42.668;23.364;2024-03-23T13:30:53;8.85;;;3.78;;
28625;SDS011;18905;42.668;23.364;2024-03-23T13:33:19;4.30;;;3.08;;
28625;SDS011;18905;42.668;23.364;2024-03-23T13:35:55;1.60;;;1.50;;
28625;SDS011;18905;42.668;23.364;2024-03-23T13:38:21;1.17;;;1.15;;
28625;SDS011;18905;42.668;23.364;2024-03-23T13:40:56;4.05;;;2.13;;
28625;SDS011;18905;42.668;23.364;2024-03-23T13:43:26;2.85;;;2.63;;
28625;SDS011;18905;42.668;23.364;2024-03-23T13:45:58;4.80;;;3.47;;
28625;SDS011;18905;42.668;23.364;2024-03-23T13:48:25;8.27;;;3.63;;
28625;SDS011;18905;42.668;23.364;2024-03-23T13:51:01;6.28;;;4.20;;
28625;SDS011;18905;42.668;23.364;2024-03-23T13:53:28;4.32;;;3.05;;
28625;SDS011;18905;42.668;23.364;2024-03-23T13:55:54;1.50;;;1.10;;
28625;SDS011;18905;42.668;23.364;2024-03-23T13:58:20;1.67;;;0.93;;
28625;SDS011;18905;42.668;23.364;2024-03-23T14:00:45;1.60;;;0.73;;
28625;SDS011;18905;42.668;23.364;2024-03-23T14:03:11;1.38;;;1.27;;
28625;SDS011;18905;42.668;23.364;2024-03-23T14:05:37;2.20;;;1.20;;
28625;SDS011;18905;42.668;23.364;2024-03-23T14:08:04;1.63;;;1.02;;
28625;SDS011;18905;42.668;23.364;2024-03-23T14:10:30;2.85;;;1.10;;
28625;SDS011;18905;42.668;23.364;2024-03-23T14:12:55;1.52;;;0.93;;
28625;SDS011;18905;42.668;23.364;2024-03-23T14:15:21;1.05;;;0.95;;
28625;SDS011;18905;42.668;23.364;2024-03-23T14:17:46;0.88;;;0.73;;
28625;SDS011;18905;42.668;23.364;2024-03-23T14:20:11;4.47;;;0.93;;
28625;SDS011;18905;42.668;23.364;2024-03-23T14:22:38;1.85;;;1.10;;
28625;SDS011;18905;42.668;23.364;2024-03-23T14:25:06;1.63;;;1.10;;
28625;SDS011;18905;42.668;23.364;2024-03-23T14:27:32;1.00;;;1.00;;
28625;SDS011;18905;42.668;23.364;2024-03-23T14:29:57;3.92;;;1.40;;
28625;SDS011;18905;42.668;23.364;2024-03-23T14:32:22;1.70;;;1.13;;
28625;SDS011;18905;42.668;23.364;2024-03-23T14:34:48;1.40;;;1.10;;
28625;SDS011;18905;42.668;23.364;2024-03-23T14:37:14;1.73;;;1.15;;
28625;SDS011;18905;42.668;23.364;2024-03-23T14:39:41;2.30;;;1.45;;
28625;SDS011;18905;42.668;23.364;2024-03-23T14:42:07;1.30;;;1.10;;
28625;SDS011;18905;42.668;23.364;2024-03-23T14:44:33;1.10;;;0.90;;
28625;SDS011;18905;42.668;23.364;2024-03-23T14:46:59;0.93;;;0.93;;
28625;SDS011;18905;42.668;23.364;2024-03-23T14:49:24;0.85;;;0.80;;
28625;SDS011;18905;42.668;23.364;2024-03-23T14:51:51;1.10;;;0.88;;
28625;SDS011;18905;42.668;23.364;2024-03-23T14:54:16;1.00;;;0.90;;
28625;SDS011;18905;42.668;23.364;2024-03-23T14:56:41;1.10;;;1.10;;
28625;SDS011;18905;42.668;23.364;2024-03-23T14:59:07;1.75;;;1.58;;
28625;SDS011;18905;42.668;23.364;2024-03-23T15:01:32;1.42;;;1.15;;
28625;SDS011;18905;42.668;23.364;2024-03-23T15:03:59;2.55;;;1.10;;
28625;SDS011;18905;42.668;23.364;2024-03-23T15:06:24;0.80;;;0.80;;
28625;SDS011;18905;42.668;23.364;2024-03-23T15:08:50;2.55;;;1.30;;
28625;SDS011;18905;42.668;23.364;2024-03-23T15:11:15;2.00;;;0.90;;
28625;SDS011;18905;42.668;23.364;2024-03-23T15:13:44;2.05;;;1.40;;
28625;SDS011;18905;42.668;23.364;2024-03-23T15:16:09;2.65;;;1.02;;
28625;SDS011;18905;42.668;23.364;2024-03-23T15:18:35;0.90;;;0.90;;
28625;SDS011;18905;42.668;23.364;2024-03-23T15:21:01;1.05;;;0.80;;
28625;SDS011;18905;42.668;23.364;2024-03-23T15:23:28;1.67;;;1.23;;
28625;SDS011;18905;42.668;23.364;2024-03-23T15:25:57;0.98;;;0.88;;
28625;SDS011;18905;42.668;23.364;2024-03-23T15:28:24;1.20;;;1.10;;
28625;SDS011;18905;42.668;23.364;2024-03-23T15:30:52;1.75;;;1.38;;
28625;SDS011;18905;42.668;23.364;2024-03-23T15:33:17;1.33;;;1.23;;
28625;SDS011;18905;42.668;23.364;2024-03-23T15:35:43;1.30;;;1.05;;